sensor_id;sensor_type;location;lat;lon;timestamp;temperature;humidity
10233;DHT22;5161;48.174;11.756;2024-01-30T00:00:43;5.00;62.60
10233;DHT22;5161;48.174;11.756;2024-01-30T00:03:09;5.00;62.60
10233;DHT22;5161;48.174;11.756;2024-01-30T00:05:34;5.00;62.50
10233;DHT22;5161;48.174;11.756;2024-01-30T00:08:00;5.00;62.50
10233;DHT22;5161;48.174;11.756;2024-01-30T00:10:25;4.90;62.50
10233;DHT22;5161;48.174;11.756;2024-01-30T00:12:51;4.90;62.50
10233;DHT22;5161;48.174;11.756;2024-01-30T00:15:18;4.90;62.60
10233;DHT22;5161;48.174;11.756;2024-01-30T00:17:43;4.90;62.70
10233;DHT22;5161;48.174;11.756;2024-01-30T00:20:09;4.90;62.70
10233;DHT22;5161;48.174;11.756;2024-01-30T00:22:35;4.90;62.60
10233;DHT22;5161;48.174;11.756;2024-01-30T00:25:01;4.90;62.70
10233;DHT22;5161;48.174;11.756;2024-01-30T00:27:26;4.90;62.60
10233;DHT22;5161;48.174;11.756;2024-01-30T00:29:53;4.90;62.90
10233;DHT22;5161;48.174;11.756;2024-01-30T00:32:18;4.90;63.00
10233;DHT22;5161;48.174;11.756;2024-01-30T00:34:45;4.90;63.00
10233;DHT22;5161;48.174;11.756;2024-01-30T00:37:11;4.90;63.00
10233;DHT22;5161;48.174;11.756;2024-01-30T00:39:36;4.90;63.00
10233;DHT22;5161;48.174;11.756;2024-01-30T00:42:02;4.90;63.00
10233;DHT22;5161;48.174;11.756;2024-01-30T00:44:28;4.90;62.80
10233;DHT22;5161;48.174;11.756;2024-01-30T00:46:53;4.90;62.90
10233;DHT22;5161;48.174;11.756;2024-01-30T00:49:19;4.80;62.90
10233;DHT22;5161;48.174;11.756;2024-01-30T00:51:46;4.80;62.90
10233;DHT22;5161;48.174;11.756;2024-01-30T00:54:11;4.80;62.90
10233;DHT22;5161;48.174;11.756;2024-01-30T00:56:37;4.80;62.70
10233;DHT22;5161;48.174;11.756;2024-01-30T00:59:03;4.80;62.80
10233;DHT22;5161;48.174;11.756;2024-01-30T01:01:28;4.70;62.60
10233;DHT22;5161;48.174;11.756;2024-01-30T01:03:54;4.70;62.70
10233;DHT22;5161;48.174;11.756;2024-01-30T01:06:19;4.70;62.70
10233;DHT22;5161;48.174;11.756;2024-01-30T01:08:45;4.70;62.70
10233;DHT22;5161;48.174;11.756;2024-01-30T01:11:10;4.60;62.60
10233;DHT22;5161;48.174;11.756;2024-01-30T01:13:36;4.60;62.50
10233;DHT22;5161;48.174;11.756;2024-01-30T01:16:02;4.60;62.60
10233;DHT22;5161;48.174;11.756;2024-01-30T01:18:27;4.60;62.70
10233;DHT22;5161;48.174;11.756;2024-01-30T01:20:53;4.50;62.70
10233;DHT22;5161;48.174;11.756;2024-01-30T01:23:18;4.50;62.80
10233;DHT22;5161;48.174;11.756;2024-01-30T01:25:44;4.60;63.00
10233;DHT22;5161;48.174;11.756;2024-01-30T01:28:09;4.60;63.10
10233;DHT22;5161;48.174;11.756;2024-01-30T01:30:35;4.60;63.20
10233;DHT22;5161;48.174;11.756;2024-01-30T01:33:01;4.60;63.00
10233;DHT22;5161;48.174;11.756;2024-01-30T01:35:27;4.60;63.00
10233;DHT22;5161;48.174;11.756;2024-01-30T01:37:53;4.50;62.80
10233;DHT22;5161;48.174;11.756;2024-01-30T01:40:25;4.50;62.90
10233;DHT22;5161;48.174;11.756;2024-01-30T01:42:52;4.50;63.50
10233;DHT22;5161;48.174;11.756;2024-01-30T01:45:18;4.50;62.80
10233;DHT22;5161;48.174;11.756;2024-01-30T01:47:47;4.50;62.80
10233;DHT22;5161;48.174;11.756;2024-01-30T01:50:16;4.40;63.10
10233;DHT22;5161;48.174;11.756;2024-01-30T01:52:47;4.40;63.50
10233;DHT22;5161;48.174;11.756;2024-01-30T01:55:14;4.40;63.30
10233;DHT22;5161;48.174;11.756;2024-01-30T01:57:41;4.40;62.80
10233;DHT22;5161;48.174;11.756;2024-01-30T02:00:08;4.40;63.00
10233;DHT22;5161;48.174;11.756;2024-01-30T02:02:36;4.30;63.00
10233;DHT22;5161;48.174;11.756;2024-01-30T02:05:01;4.30;62.60
10233;DHT22;5161;48.174;11.756;2024-01-30T02:07:30;4.30;62.70
10233;DHT22;5161;48.174;11.756;2024-01-30T02:09:56;4.20;64.00
10233;DHT22;5161;48.174;11.756;2024-01-30T02:12:21;4.20;63.00
10233;DHT22;5161;48.174;11.756;2024-01-30T02:14:48;4.20;62.80
10233;DHT22;5161;48.174;11.756;2024-01-30T02:17:15;4.20;63.20
10233;DHT22;5161;48.174;11.756;2024-01-30T02:19:41;4.10;63.20
10233;DHT22;5161;48.174;11.756;2024-01-30T02:22:07;4.10;63.30
10233;DHT22;5161;48.174;11.756;2024-01-30T02:24:33;4.10;63.70
10233;DHT22;5161;48.174;11.756;2024-01-30T02:26:58;4.10;63.20
10233;DHT22;5161;48.174;11.756;2024-01-30T02:29:24;4.10;63.00
10233;DHT22;5161;48.174;11.756;2024-01-30T02:31:50;4.10;63.10
10233;DHT22;5161;48.174;11.756;2024-01-30T02:34:15;4.10;62.80
10233;DHT22;5161;48.174;11.756;2024-01-30T02:36:45;4.10;62.70
10233;DHT22;5161;48.174;11.756;2024-01-30T02:39:10;4.10;64.00
10233;DHT22;5161;48.174;11.756;2024-01-30T02:41:36;4.10;62.80
10233;DHT22;5161;48.174;11.756;2024-01-30T02:44:05;4.10;62.80
10233;DHT22;5161;48.174;11.756;2024-01-30T02:46:30;4.10;63.80
10233;DHT22;5161;48.174;11.756;2024-01-30T02:48:56;4.10;62.70
10233;DHT22;5161;48.174;11.756;2024-01-30T02:51:22;4.10;62.60
10233;DHT22;5161;48.174;11.756;2024-01-30T02:53:48;4.10;62.70
10233;DHT22;5161;48.174;11.756;2024-01-30T02:56:13;4.10;62.60
10233;DHT22;5161;48.174;11.756;2024-01-30T02:58:39;4.10;62.70
10233;DHT22;5161;48.174;11.756;2024-01-30T03:01:06;4.10;62.70
10233;DHT22;5161;48.174;11.756;2024-01-30T03:03:32;4.10;62.70
10233;DHT22;5161;48.174;11.756;2024-01-30T03:05:57;4.10;62.70
10233;DHT22;5161;48.174;11.756;2024-01-30T03:08:23;4.10;62.70
10233;DHT22;5161;48.174;11.756;2024-01-30T03:10:49;4.00;62.40
10233;DHT22;5161;48.174;11.756;2024-01-30T03:13:14;4.00;62.80
10233;DHT22;5161;48.174;11.756;2024-01-30T03:15:40;4.00;62.60
10233;DHT22;5161;48.174;11.756;2024-01-30T03:18:06;4.00;62.60
10233;DHT22;5161;48.174;11.756;2024-01-30T03:20:31;4.00;62.50
10233;DHT22;5161;48.174;11.756;2024-01-30T03:22:59;4.00;62.40
10233;DHT22;5161;48.174;11.756;2024-01-30T03:25:25;4.00;62.40
10233;DHT22;5161;48.174;11.756;2024-01-30T03:27:51;4.00;62.40
10233;DHT22;5161;48.174;11.756;2024-01-30T03:30:16;4.00;62.50
10233;DHT22;5161;48.174;11.756;2024-01-30T03:32:42;4.00;62.60
10233;DHT22;5161;48.174;11.756;2024-01-30T03:35:08;4.00;62.50
10233;DHT22;5161;48.174;11.756;2024-01-30T03:37:34;4.00;62.40
10233;DHT22;5161;48.174;11.756;2024-01-30T03:40:01;4.00;62.40
10233;DHT22;5161;48.174;11.756;2024-01-30T03:42:27;3.90;62.90
10233;DHT22;5161;48.174;11.756;2024-01-30T03:44:53;3.90;62.30
10233;DHT22;5161;48.174;11.756;2024-01-30T03:47:19;3.90;62.40
10233;DHT22;5161;48.174;11.756;2024-01-30T03:49:45;3.90;62.60
10233;DHT22;5161;48.174;11.756;2024-01-30T03:52:11;3.90;62.50
10233;DHT22;5161;48.174;11.756;2024-01-30T03:54:36;3.90;62.40
10233;DHT22;5161;48.174;11.756;2024-01-30T03:57:02;3.90;62.30
10233;DHT22;5161;48.174;11.756;2024-01-30T03:59:28;3.90;62.60
10233;DHT22;5161;48.174;11.756;2024-01-30T04:01:54;3.80;62.60
10233;DHT22;5161;48.174;11.756;2024-01-30T04:04:20;3.80;63.60
10233;DHT22;5161;48.174;11.756;2024-01-30T04:06:46;3.80;63.00
10233;DHT22;5161;48.174;11.756;2024-01-30T04:09:12;3.80;62.80
10233;DHT22;5161;48.174;11.756;2024-01-30T04:11:39;3.80;63.00
10233;DHT22;5161;48.174;11.756;2024-01-30T04:14:05;3.80;63.00
10233;DHT22;5161;48.174;11.756;2024-01-30T04:16:30;3.80;62.90
10233;DHT22;5161;48.174;11.756;2024-01-30T04:18:56;3.80;62.80
10233;DHT22;5161;48.174;11.756;2024-01-30T04:21:22;3.90;62.90
10233;DHT22;5161;48.174;11.756;2024-01-30T04:23:48;3.90;62.80
10233;DHT22;5161;48.174;11.756;2024-01-30T04:26:14;3.90;62.60
10233;DHT22;5161;48.174;11.756;2024-01-30T04:28:41;3.90;62.40
10233;DHT22;5161;48.174;11.756;2024-01-30T04:31:07;3.80;63.60
10233;DHT22;5161;48.174;11.756;2024-01-30T04:33:33;3.90;62.50
10233;DHT22;5161;48.174;11.756;2024-01-30T04:35:59;3.90;62.50
10233;DHT22;5161;48.174;11.756;2024-01-30T04:38:25;4.00;62.50
10233;DHT22;5161;48.174;11.756;2024-01-30T04:40:50;4.00;62.50
10233;DHT22;5161;48.174;11.756;2024-01-30T04:43:16;4.00;62.20
10233;DHT22;5161;48.174;11.756;2024-01-30T04:45:41;4.00;62.10
10233;DHT22;5161;48.174;11.756;2024-01-30T04:48:07;3.90;62.00
10233;DHT22;5161;48.174;11.756;2024-01-30T04:50:33;3.90;62.10
10233;DHT22;5161;48.174;11.756;2024-01-30T04:52:58;3.90;62.10
10233;DHT22;5161;48.174;11.756;2024-01-30T04:55:24;3.90;62.10
10233;DHT22;5161;48.174;11.756;2024-01-30T04:57:49;3.90;62.10
10233;DHT22;5161;48.174;11.756;2024-01-30T05:00:15;3.90;61.90
10233;DHT22;5161;48.174;11.756;2024-01-30T05:02:41;3.90;62.10
10233;DHT22;5161;48.174;11.756;2024-01-30T05:05:07;3.80;61.90
10233;DHT22;5161;48.174;11.756;2024-01-30T05:07:33;3.80;62.00
10233;DHT22;5161;48.174;11.756;2024-01-30T05:09:59;3.80;62.10
10233;DHT22;5161;48.174;11.756;2024-01-30T05:12:25;3.80;62.20
10233;DHT22;5161;48.174;11.756;2024-01-30T05:14:50;3.80;62.10
10233;DHT22;5161;48.174;11.756;2024-01-30T05:17:16;3.80;62.00
10233;DHT22;5161;48.174;11.756;2024-01-30T05:19:44;3.80;62.00
10233;DHT22;5161;48.174;11.756;2024-01-30T05:22:09;3.80;62.60
10233;DHT22;5161;48.174;11.756;2024-01-30T05:24:36;3.70;61.80
10233;DHT22;5161;48.174;11.756;2024-01-30T05:27:02;3.70;62.10
10233;DHT22;5161;48.174;11.756;2024-01-30T05:29:28;3.70;61.80
10233;DHT22;5161;48.174;11.756;2024-01-30T05:31:53;3.70;61.80
10233;DHT22;5161;48.174;11.756;2024-01-30T05:34:19;3.70;61.80
10233;DHT22;5161;48.174;11.756;2024-01-30T05:36:44;3.60;61.80
10233;DHT22;5161;48.174;11.756;2024-01-30T05:39:10;3.60;62.00
10233;DHT22;5161;48.174;11.756;2024-01-30T05:41:36;3.60;62.30
10233;DHT22;5161;48.174;11.756;2024-01-30T05:44:01;3.60;62.70
10233;DHT22;5161;48.174;11.756;2024-01-30T05:46:27;3.60;63.10
10233;DHT22;5161;48.174;11.756;2024-01-30T05:48:53;3.50;62.80
10233;DHT22;5161;48.174;11.756;2024-01-30T05:51:18;3.50;63.10
10233;DHT22;5161;48.174;11.756;2024-01-30T05:53:44;3.50;62.90
10233;DHT22;5161;48.174;11.756;2024-01-30T05:56:10;3.50;63.00
10233;DHT22;5161;48.174;11.756;2024-01-30T05:58:35;3.40;62.70
10233;DHT22;5161;48.174;11.756;2024-01-30T06:01:06;3.40;62.80
10233;DHT22;5161;48.174;11.756;2024-01-30T06:03:32;3.40;62.60
10233;DHT22;5161;48.174;11.756;2024-01-30T06:05:57;3.40;62.20
10233;DHT22;5161;48.174;11.756;2024-01-30T06:08:23;3.40;62.20
10233;DHT22;5161;48.174;11.756;2024-01-30T06:10:48;3.40;62.10
10233;DHT22;5161;48.174;11.756;2024-01-30T06:13:14;3.40;62.10
10233;DHT22;5161;48.174;11.756;2024-01-30T06:15:40;3.40;62.20
10233;DHT22;5161;48.174;11.756;2024-01-30T06:18:05;3.40;62.10
10233;DHT22;5161;48.174;11.756;2024-01-30T06:20:31;3.40;62.80
10233;DHT22;5161;48.174;11.756;2024-01-30T06:22:56;3.40;62.20
10233;DHT22;5161;48.174;11.756;2024-01-30T06:25:22;3.40;62.20
10233;DHT22;5161;48.174;11.756;2024-01-30T06:27:48;3.40;62.00
10233;DHT22;5161;48.174;11.756;2024-01-30T06:30:14;3.50;65.00
10233;DHT22;5161;48.174;11.756;2024-01-30T06:32:39;3.70;65.40
10233;DHT22;5161;48.174;11.756;2024-01-30T06:35:05;3.90;65.20
10233;DHT22;5161;48.174;11.756;2024-01-30T06:37:31;4.10;64.50
10233;DHT22;5161;48.174;11.756;2024-01-30T06:39:57;4.10;63.10
10233;DHT22;5161;48.174;11.756;2024-01-30T06:42:22;4.10;62.40
10233;DHT22;5161;48.174;11.756;2024-01-30T06:44:48;4.00;62.10
10233;DHT22;5161;48.174;11.756;2024-01-30T06:47:13;3.90;61.90
10233;DHT22;5161;48.174;11.756;2024-01-30T06:49:39;3.80;61.80
10233;DHT22;5161;48.174;11.756;2024-01-30T06:52:07;3.70;61.90
10233;DHT22;5161;48.174;11.756;2024-01-30T06:54:33;3.70;62.50
10233;DHT22;5161;48.174;11.756;2024-01-30T06:56:59;3.70;62.10
10233;DHT22;5161;48.174;11.756;2024-01-30T06:59:25;3.60;61.90
10233;DHT22;5161;48.174;11.756;2024-01-30T07:01:51;3.60;61.80
10233;DHT22;5161;48.174;11.756;2024-01-30T07:04:16;3.70;62.00
10233;DHT22;5161;48.174;11.756;2024-01-30T07:06:43;3.60;61.80
10233;DHT22;5161;48.174;11.756;2024-01-30T07:09:09;3.60;61.80
10233;DHT22;5161;48.174;11.756;2024-01-30T07:11:35;3.60;62.00
10233;DHT22;5161;48.174;11.756;2024-01-30T07:14:00;3.60;62.20
10233;DHT22;5161;48.174;11.756;2024-01-30T07:16:29;3.50;62.20
10233;DHT22;5161;48.174;11.756;2024-01-30T07:18:54;3.50;62.40
10233;DHT22;5161;48.174;11.756;2024-01-30T07:21:21;3.50;62.30
10233;DHT22;5161;48.174;11.756;2024-01-30T07:23:50;3.60;62.40
10233;DHT22;5161;48.174;11.756;2024-01-30T07:26:16;3.60;61.10
10233;DHT22;5161;48.174;11.756;2024-01-30T07:28:41;3.60;62.40
10233;DHT22;5161;48.174;11.756;2024-01-30T07:31:08;3.60;62.40
10233;DHT22;5161;48.174;11.756;2024-01-30T07:33:33;3.70;62.50
10233;DHT22;5161;48.174;11.756;2024-01-30T07:35:59;3.80;62.50
10233;DHT22;5161;48.174;11.756;2024-01-30T07:38:25;3.80;62.50
10233;DHT22;5161;48.174;11.756;2024-01-30T07:40:50;3.80;62.60
10233;DHT22;5161;48.174;11.756;2024-01-30T07:43:16;3.80;62.70
10233;DHT22;5161;48.174;11.756;2024-01-30T07:45:42;3.90;63.00
10233;DHT22;5161;48.174;11.756;2024-01-30T07:48:07;3.90;63.00
10233;DHT22;5161;48.174;11.756;2024-01-30T07:50:33;3.90;63.20
10233;DHT22;5161;48.174;11.756;2024-01-30T07:53:00;3.90;63.10
10233;DHT22;5161;48.174;11.756;2024-01-30T07:55:26;3.90;63.90
10233;DHT22;5161;48.174;11.756;2024-01-30T07:57:57;3.90;63.50
10233;DHT22;5161;48.174;11.756;2024-01-30T08:00:22;4.00;63.80
10233;DHT22;5161;48.174;11.756;2024-01-30T08:02:54;4.00;63.70
10233;DHT22;5161;48.174;11.756;2024-01-30T08:05:20;4.10;63.90
10233;DHT22;5161;48.174;11.756;2024-01-30T08:07:48;4.20;63.80
10233;DHT22;5161;48.174;11.756;2024-01-30T08:10:14;4.20;63.70
10233;DHT22;5161;48.174;11.756;2024-01-30T08:12:40;4.30;64.10
10233;DHT22;5161;48.174;11.756;2024-01-30T08:15:06;4.40;63.70
10233;DHT22;5161;48.174;11.756;2024-01-30T08:17:31;4.40;64.10
10233;DHT22;5161;48.174;11.756;2024-01-30T08:19:57;4.50;63.70
10233;DHT22;5161;48.174;11.756;2024-01-30T08:22:23;4.50;63.60
10233;DHT22;5161;48.174;11.756;2024-01-30T08:24:48;4.60;63.60
10233;DHT22;5161;48.174;11.756;2024-01-30T08:27:14;4.70;63.60
10233;DHT22;5161;48.174;11.756;2024-01-30T08:29:40;4.70;63.30
10233;DHT22;5161;48.174;11.756;2024-01-30T08:32:06;4.80;63.10
10233;DHT22;5161;48.174;11.756;2024-01-30T08:34:32;4.80;63.40
10233;DHT22;5161;48.174;11.756;2024-01-30T08:36:57;4.90;62.60
10233;DHT22;5161;48.174;11.756;2024-01-30T08:39:23;4.90;62.20
10233;DHT22;5161;48.174;11.756;2024-01-30T08:41:48;5.00;62.00
10233;DHT22;5161;48.174;11.756;2024-01-30T08:44:14;5.10;62.00
10233;DHT22;5161;48.174;11.756;2024-01-30T08:46:39;5.10;61.80
10233;DHT22;5161;48.174;11.756;2024-01-30T08:49:05;5.20;62.00
10233;DHT22;5161;48.174;11.756;2024-01-30T08:51:31;5.30;62.40
10233;DHT22;5161;48.174;11.756;2024-01-30T08:53:56;5.30;62.40
10233;DHT22;5161;48.174;11.756;2024-01-30T08:56:22;5.40;62.40
10233;DHT22;5161;48.174;11.756;2024-01-30T08:58:48;5.40;62.50
10233;DHT22;5161;48.174;11.756;2024-01-30T09:01:14;5.50;62.50
10233;DHT22;5161;48.174;11.756;2024-01-30T09:03:39;5.50;62.80
10233;DHT22;5161;48.174;11.756;2024-01-30T09:06:12;5.60;62.80
10233;DHT22;5161;48.174;11.756;2024-01-30T09:08:38;5.70;64.60
10233;DHT22;5161;48.174;11.756;2024-01-30T09:11:11;5.70;62.80
10233;DHT22;5161;48.174;11.756;2024-01-30T09:13:37;5.80;64.60
10233;DHT22;5161;48.174;11.756;2024-01-30T09:16:03;5.90;62.60
10233;DHT22;5161;48.174;11.756;2024-01-30T09:18:29;5.90;62.60
10233;DHT22;5161;48.174;11.756;2024-01-30T09:20:54;5.90;62.20
10233;DHT22;5161;48.174;11.756;2024-01-30T09:23:20;6.00;62.50
10233;DHT22;5161;48.174;11.756;2024-01-30T09:25:45;6.00;62.30
10233;DHT22;5161;48.174;11.756;2024-01-30T09:28:11;6.00;62.70
10233;DHT22;5161;48.174;11.756;2024-01-30T09:30:39;6.10;62.80
10233;DHT22;5161;48.174;11.756;2024-01-30T09:33:05;6.20;62.90
10233;DHT22;5161;48.174;11.756;2024-01-30T09:35:31;6.20;62.80
10233;DHT22;5161;48.174;11.756;2024-01-30T09:37:57;6.30;62.80
10233;DHT22;5161;48.174;11.756;2024-01-30T09:40:23;6.30;62.80
10233;DHT22;5161;48.174;11.756;2024-01-30T09:42:50;6.40;62.70
10233;DHT22;5161;48.174;11.756;2024-01-30T09:45:18;6.40;62.70
10233;DHT22;5161;48.174;11.756;2024-01-30T09:47:44;6.50;62.60
10233;DHT22;5161;48.174;11.756;2024-01-30T09:50:12;6.50;62.70
10233;DHT22;5161;48.174;11.756;2024-01-30T09:52:38;6.60;62.40
10233;DHT22;5161;48.174;11.756;2024-01-30T09:55:04;6.70;62.70
10233;DHT22;5161;48.174;11.756;2024-01-30T09:57:30;6.70;62.50
10233;DHT22;5161;48.174;11.756;2024-01-30T09:59:55;6.80;62.40
10233;DHT22;5161;48.174;11.756;2024-01-30T10:02:21;6.80;62.70
10233;DHT22;5161;48.174;11.756;2024-01-30T10:04:48;6.90;62.80
10233;DHT22;5161;48.174;11.756;2024-01-30T10:07:15;6.90;62.40
10233;DHT22;5161;48.174;11.756;2024-01-30T10:09:40;7.00;62.20
10233;DHT22;5161;48.174;11.756;2024-01-30T10:12:06;7.00;62.50
10233;DHT22;5161;48.174;11.756;2024-01-30T10:14:33;7.10;62.20
10233;DHT22;5161;48.174;11.756;2024-01-30T10:16:58;7.20;62.10
10233;DHT22;5161;48.174;11.756;2024-01-30T10:19:24;7.20;62.20
10233;DHT22;5161;48.174;11.756;2024-01-30T10:21:50;7.30;61.20
10233;DHT22;5161;48.174;11.756;2024-01-30T10:24:16;7.40;62.20
10233;DHT22;5161;48.174;11.756;2024-01-30T10:26:44;7.40;62.30
10233;DHT22;5161;48.174;11.756;2024-01-30T10:29:09;7.50;61.20
10233;DHT22;5161;48.174;11.756;2024-01-30T10:31:35;7.60;61.20
10233;DHT22;5161;48.174;11.756;2024-01-30T10:34:00;7.70;61.90
10233;DHT22;5161;48.174;11.756;2024-01-30T10:36:28;7.80;62.50
10233;DHT22;5161;48.174;11.756;2024-01-30T10:38:59;7.80;63.10
10233;DHT22;5161;48.174;11.756;2024-01-30T10:41:31;7.90;63.20
10233;DHT22;5161;48.174;11.756;2024-01-30T10:44:09;8.00;63.30
10233;DHT22;5161;48.174;11.756;2024-01-30T10:46:37;8.10;63.30
10233;DHT22;5161;48.174;11.756;2024-01-30T10:49:04;8.20;62.40
10233;DHT22;5161;48.174;11.756;2024-01-30T10:51:31;8.30;63.10
10233;DHT22;5161;48.174;11.756;2024-01-30T10:53:57;8.40;63.50
10233;DHT22;5161;48.174;11.756;2024-01-30T10:56:23;8.50;64.20
10233;DHT22;5161;48.174;11.756;2024-01-30T10:58:50;8.60;64.30
10233;DHT22;5161;48.174;11.756;2024-01-30T11:01:19;8.60;64.60
10233;DHT22;5161;48.174;11.756;2024-01-30T11:03:45;8.70;65.10
10233;DHT22;5161;48.174;11.756;2024-01-30T11:06:11;8.80;64.20
10233;DHT22;5161;48.174;11.756;2024-01-30T11:08:39;9.00;65.10
10233;DHT22;5161;48.174;11.756;2024-01-30T11:11:09;9.00;65.10
10233;DHT22;5161;48.174;11.756;2024-01-30T11:13:35;9.00;64.10
10233;DHT22;5161;48.174;11.756;2024-01-30T11:16:04;9.10;64.60
10233;DHT22;5161;48.174;11.756;2024-01-30T11:18:31;9.10;64.80
10233;DHT22;5161;48.174;11.756;2024-01-30T11:21:01;9.10;64.70
10233;DHT22;5161;48.174;11.756;2024-01-30T11:23:28;9.10;64.60
10233;DHT22;5161;48.174;11.756;2024-01-30T11:25:54;9.10;64.20
10233;DHT22;5161;48.174;11.756;2024-01-30T11:28:21;9.10;64.20
10233;DHT22;5161;48.174;11.756;2024-01-30T11:30:47;9.10;64.00
10233;DHT22;5161;48.174;11.756;2024-01-30T11:33:29;9.20;63.90
10233;DHT22;5161;48.174;11.756;2024-01-30T11:35:58;9.20;63.80
10233;DHT22;5161;48.174;11.756;2024-01-30T11:38:27;9.40;64.30
10233;DHT22;5161;48.174;11.756;2024-01-30T11:40:55;9.60;64.50
10233;DHT22;5161;48.174;11.756;2024-01-30T11:43:23;9.90;64.50
10233;DHT22;5161;48.174;11.756;2024-01-30T11:45:49;10.30;63.80
10233;DHT22;5161;48.174;11.756;2024-01-30T11:48:15;10.50;64.10
10233;DHT22;5161;48.174;11.756;2024-01-30T11:50:40;10.80;64.10
10233;DHT22;5161;48.174;11.756;2024-01-30T11:53:06;11.10;64.90
10233;DHT22;5161;48.174;11.756;2024-01-30T11:55:33;11.10;63.30
10233;DHT22;5161;48.174;11.756;2024-01-30T11:57:58;11.10;63.10
10233;DHT22;5161;48.174;11.756;2024-01-30T12:00:24;11.10;62.90
10233;DHT22;5161;48.174;11.756;2024-01-30T12:02:51;11.20;63.40
10233;DHT22;5161;48.174;11.756;2024-01-30T12:05:19;11.30;63.50
10233;DHT22;5161;48.174;11.756;2024-01-30T12:07:45;11.50;63.30
10233;DHT22;5161;48.174;11.756;2024-01-30T12:10:15;11.70;64.20
10233;DHT22;5161;48.174;11.756;2024-01-30T12:12:54;12.00;64.30
10233;DHT22;5161;48.174;11.756;2024-01-30T12:15:21;12.20;63.50
10233;DHT22;5161;48.174;11.756;2024-01-30T12:17:47;12.20;61.80
10233;DHT22;5161;48.174;11.756;2024-01-30T12:20:14;12.10;61.70
10233;DHT22;5161;48.174;11.756;2024-01-30T12:22:50;12.10;62.20
10233;DHT22;5161;48.174;11.756;2024-01-30T12:25:17;12.30;63.20
10233;DHT22;5161;48.174;11.756;2024-01-30T12:27:45;12.50;63.00
10233;DHT22;5161;48.174;11.756;2024-01-30T12:30:12;12.70;62.90
10233;DHT22;5161;48.174;11.756;2024-01-30T12:32:42;12.70;61.70
10233;DHT22;5161;48.174;11.756;2024-01-30T12:35:12;12.60;62.10
10233;DHT22;5161;48.174;11.756;2024-01-30T12:37:38;12.50;60.70
10233;DHT22;5161;48.174;11.756;2024-01-30T12:40:04;12.40;61.50
10233;DHT22;5161;48.174;11.756;2024-01-30T12:42:31;12.30;61.30
10233;DHT22;5161;48.174;11.756;2024-01-30T12:44:58;12.40;61.70
10233;DHT22;5161;48.174;11.756;2024-01-30T12:47:24;12.60;61.80
10233;DHT22;5161;48.174;11.756;2024-01-30T12:49:50;12.70;62.20
10233;DHT22;5161;48.174;11.756;2024-01-30T12:52:19;12.80;62.20
10233;DHT22;5161;48.174;11.756;2024-01-30T12:54:45;12.80;61.10
10233;DHT22;5161;48.174;11.756;2024-01-30T12:57:11;13.00;61.70
10233;DHT22;5161;48.174;11.756;2024-01-30T12:59:36;13.20;62.30
10233;DHT22;5161;48.174;11.756;2024-01-30T13:02:02;13.30;61.40
10233;DHT22;5161;48.174;11.756;2024-01-30T13:04:28;13.30;62.10
10233;DHT22;5161;48.174;11.756;2024-01-30T13:06:54;13.30;62.20
10233;DHT22;5161;48.174;11.756;2024-01-30T13:09:20;13.40;62.10
10233;DHT22;5161;48.174;11.756;2024-01-30T13:11:46;13.60;61.60
10233;DHT22;5161;48.174;11.756;2024-01-30T13:14:11;13.80;58.70
10233;DHT22;5161;48.174;11.756;2024-01-30T13:16:37;13.90;59.20
10233;DHT22;5161;48.174;11.756;2024-01-30T13:19:03;13.80;59.50
10233;DHT22;5161;48.174;11.756;2024-01-30T13:21:28;13.70;59.80
10233;DHT22;5161;48.174;11.756;2024-01-30T13:23:54;13.60;59.60
10233;DHT22;5161;48.174;11.756;2024-01-30T13:26:20;13.40;59.30
10233;DHT22;5161;48.174;11.756;2024-01-30T13:28:46;13.40;59.90
10233;DHT22;5161;48.174;11.756;2024-01-30T13:31:13;13.40;60.30
10233;DHT22;5161;48.174;11.756;2024-01-30T13:33:39;13.40;60.40
10233;DHT22;5161;48.174;11.756;2024-01-30T13:36:06;13.60;60.80
10233;DHT22;5161;48.174;11.756;2024-01-30T13:38:32;13.70;60.90
10233;DHT22;5161;48.174;11.756;2024-01-30T13:40:57;13.90;61.10
10233;DHT22;5161;48.174;11.756;2024-01-30T13:43:23;14.00;61.10
10233;DHT22;5161;48.174;11.756;2024-01-30T13:45:48;14.10;61.60
10233;DHT22;5161;48.174;11.756;2024-01-30T13:48:14;14.10;60.80
10233;DHT22;5161;48.174;11.756;2024-01-30T13:50:39;14.10;60.30
10233;DHT22;5161;48.174;11.756;2024-01-30T13:53:05;14.10;60.50
10233;DHT22;5161;48.174;11.756;2024-01-30T13:55:30;14.10;60.40
10233;DHT22;5161;48.174;11.756;2024-01-30T13:57:56;14.10;60.70
10233;DHT22;5161;48.174;11.756;2024-01-30T14:00:22;14.20;60.60
10233;DHT22;5161;48.174;11.756;2024-01-30T14:02:48;14.20;60.30
10233;DHT22;5161;48.174;11.756;2024-01-30T14:05:14;14.20;60.30
10233;DHT22;5161;48.174;11.756;2024-01-30T14:07:40;14.20;60.70
10233;DHT22;5161;48.174;11.756;2024-01-30T14:10:09;14.20;59.80
10233;DHT22;5161;48.174;11.756;2024-01-30T14:12:36;14.10;59.60
10233;DHT22;5161;48.174;11.756;2024-01-30T14:15:02;14.00;59.40
10233;DHT22;5161;48.174;11.756;2024-01-30T14:17:27;14.00;59.50
10233;DHT22;5161;48.174;11.756;2024-01-30T14:19:53;14.00;59.50
10233;DHT22;5161;48.174;11.756;2024-01-30T14:22:18;14.00;59.30
10233;DHT22;5161;48.174;11.756;2024-01-30T14:24:44;14.00;59.30
10233;DHT22;5161;48.174;11.756;2024-01-30T14:27:10;13.90;59.10
10233;DHT22;5161;48.174;11.756;2024-01-30T14:29:35;13.80;58.90
10233;DHT22;5161;48.174;11.756;2024-01-30T14:32:02;13.60;58.60
10233;DHT22;5161;48.174;11.756;2024-01-30T14:34:27;13.50;58.40
10233;DHT22;5161;48.174;11.756;2024-01-30T14:36:53;13.40;58.30
10233;DHT22;5161;48.174;11.756;2024-01-30T14:39:18;13.20;58.20
10233;DHT22;5161;48.174;11.756;2024-01-30T14:41:44;13.20;58.60
10233;DHT22;5161;48.174;11.756;2024-01-30T14:44:10;13.10;58.70
10233;DHT22;5161;48.174;11.756;2024-01-30T14:46:36;13.00;58.60
10233;DHT22;5161;48.174;11.756;2024-01-30T14:49:02;13.00;58.80
10233;DHT22;5161;48.174;11.756;2024-01-30T14:51:31;12.90;58.80
10233;DHT22;5161;48.174;11.756;2024-01-30T14:53:56;12.80;58.50
10233;DHT22;5161;48.174;11.756;2024-01-30T14:56:22;12.70;58.50
10233;DHT22;5161;48.174;11.756;2024-01-30T14:58:48;12.70;58.60
10233;DHT22;5161;48.174;11.756;2024-01-30T15:01:14;12.60;58.60
10233;DHT22;5161;48.174;11.756;2024-01-30T15:03:39;12.70;58.70
10233;DHT22;5161;48.174;11.756;2024-01-30T15:06:06;12.60;58.50
10233;DHT22;5161;48.174;11.756;2024-01-30T15:08:31;12.60;58.50
10233;DHT22;5161;48.174;11.756;2024-01-30T15:10:58;12.50;58.40
10233;DHT22;5161;48.174;11.756;2024-01-30T15:13:23;12.50;58.40
10233;DHT22;5161;48.174;11.756;2024-01-30T15:15:49;12.50;58.40
10233;DHT22;5161;48.174;11.756;2024-01-30T15:18:15;12.40;58.40
10233;DHT22;5161;48.174;11.756;2024-01-30T15:20:40;12.40;58.40
10233;DHT22;5161;48.174;11.756;2024-01-30T15:23:06;12.30;58.40
10233;DHT22;5161;48.174;11.756;2024-01-30T15:25:31;12.20;58.50
10233;DHT22;5161;48.174;11.756;2024-01-30T15:27:57;12.20;58.60
10233;DHT22;5161;48.174;11.756;2024-01-30T15:30:23;12.10;58.80
10233;DHT22;5161;48.174;11.756;2024-01-30T15:32:48;12.10;59.00
10233;DHT22;5161;48.174;11.756;2024-01-30T15:35:14;12.10;59.20